Time;durP1;ratioP1;P1;durP2;ratioP2;P2;SDS_P1;SDS_P2;PMS_P1;PMS_P2;Temp;Humidity;BMP_temperature;BMP_pressure;BME280_temperature;BME280_humidity;BME280_pressure;Samples;Min_cycle;Max_cycle;Signal;HPM_P1;HPM_P2
2022/12/26 00:00:37;;;;;;;;;;;10.40;99.90;;;;;;4977214;28;19932;-61
2022/12/26 00:03:04;;;;;;;;;;;10.40;99.90;;;;;;4974900;28;19926;-61
2022/12/26 00:05:35;;;;;;;;;;;10.40;99.90;;;;;;4972891;28;19930;-62
2022/12/26 00:08:04;;;;;;;;;;;10.40;99.90;;;;;;4972656;28;19942;-62
2022/12/26 00:10:31;;;;;;;;;;;10.40;99.90;;;;;;4972364;28;19926;-61
2022/12/26 00:12:59;;;;;;;;;;;10.40;99.90;;;;;;4989842;28;19926;-61
2022/12/26 00:15:47;;;;;;;;;;;10.40;99.90;;;;;;4992792;28;19958;-61
2022/12/26 00:18:15;;;;;;;;;;;10.40;99.90;;;;;;4992558;28;20016;-61
2022/12/26 00:20:42;;;;;;;;;;;10.50;99.90;;;;;;4989954;28;19933;-62
2022/12/26 00:23:11;;;;;;;;;;;10.50;99.90;;;;;;4992733;28;19925;-61
2022/12/26 00:25:39;;;;;;;;;;;10.50;99.90;;;;;;4992468;28;20367;-62
2022/12/26 00:28:07;;;;;;;;;;;10.50;99.90;;;;;;4990842;28;19933;-63
2022/12/26 00:30:37;;;;;;;;;;;10.50;99.90;;;;;;4991470;28;20020;-63
2022/12/26 00:33:04;;;;;;;;;;;10.50;99.90;;;;;;4992077;28;20022;-61
2022/12/26 00:35:32;;;;;;;;;;;10.40;99.90;;;;;;4991987;28;19952;-61
2022/12/26 00:38:00;;;;;;;;;;;10.40;99.90;;;;;;4972863;28;19932;-62
2022/12/26 00:40:29;;;;;;;;;;;10.40;99.90;;;;;;4972152;28;19926;-62
2022/12/26 00:42:56;;;;;;;;;;;10.40;99.90;;;;;;4972673;28;19988;-62
2022/12/26 00:45:24;;;;;;;;;;;10.40;99.90;;;;;;4973067;28;20041;-61
2022/12/26 00:47:52;;;;;;;;;;;10.40;99.90;;;;;;4977876;28;19926;-62
2022/12/26 00:50:19;;;;;;;;;;;10.40;99.90;;;;;;4991467;28;19933;-62
2022/12/26 00:52:47;;;;;;;;;;;10.50;99.90;;;;;;4990175;28;19926;-62
2022/12/26 00:55:15;;;;;;;;;;;10.50;99.90;;;;;;4972903;28;20379;-62
2022/12/26 00:57:44;;;;;;;;;;;10.50;99.90;;;;;;4972443;28;19931;-62
2022/12/26 01:00:12;;;;;;;;;;;10.50;99.90;;;;;;4980367;28;19930;-61
2022/12/26 01:02:40;;;;;;;;;;;10.50;99.90;;;;;;4992092;28;19930;-62
2022/12/26 01:05:09;;;;;;;;;;;10.50;99.90;;;;;;4991885;28;19984;-62
2022/12/26 01:07:37;;;;;;;;;;;10.50;99.90;;;;;;4992015;28;19926;-63
2022/12/26 01:10:26;;;;;;;;;;;10.50;99.90;;;;;;4984253;28;19926;-61
2022/12/26 01:12:55;;;;;;;;;;;10.60;99.90;;;;;;4975917;28;19932;-62
2022/12/26 01:15:22;;;;;;;;;;;10.60;99.90;;;;;;4992248;28;19930;-62
2022/12/26 01:17:50;;;;;;;;;;;10.60;99.90;;;;;;4991807;28;19932;-62
2022/12/26 01:20:18;;;;;;;;;;;10.60;99.90;;;;;;4991149;28;19992;-62
2022/12/26 01:22:45;;;;;;;;;;;10.60;99.90;;;;;;4991875;28;19926;-62
2022/12/26 01:25:13;;;;;;;;;;;10.60;99.90;;;;;;4990110;28;19930;-63
2022/12/26 01:27:41;;;;;;;;;;;10.60;99.90;;;;;;4982941;28;19933;-62
2022/12/26 01:30:11;;;;;;;;;;;10.60;99.90;;;;;;4980382;28;20017;-63
2022/12/26 01:32:38;;;;;;;;;;;10.60;99.90;;;;;;4986249;28;20346;-62
2022/12/26 01:35:06;;;;;;;;;;;10.70;99.90;;;;;;4995469;28;20020;-62
2022/12/26 01:37:34;;;;;;;;;;;10.60;99.90;;;;;;4995386;28;19936;-62
2022/12/26 01:40:01;;;;;;;;;;;10.60;99.90;;;;;;4994647;28;19988;-62
2022/12/26 01:42:34;;;;;;;;;;;10.60;99.90;;;;;;4995442;28;19926;-62
2022/12/26 01:45:03;;;;;;;;;;;10.60;99.90;;;;;;4983601;28;19965;-62
2022/12/26 01:47:37;;;;;;;;;;;10.60;99.90;;;;;;4994777;28;20471;-62
2022/12/26 01:50:06;;;;;;;;;;;10.70;99.90;;;;;;4994438;28;19926;-62
2022/12/26 01:52:36;;;;;;;;;;;10.70;99.90;;;;;;4995047;28;19926;-62
2022/12/26 01:55:05;;;;;;;;;;;10.70;99.90;;;;;;4995200;28;19980;-61
2022/12/26 01:57:35;;;;;;;;;;;10.70;99.90;;;;;;4994931;28;19992;-62
2022/12/26 02:00:04;;;;;;;;;;;10.70;99.90;;;;;;4992728;28;19952;-61
2022/12/26 02:05:32;;;;;;;;;;;10.70;99.90;;;;;;4988635;28;19976;-62
2022/12/26 02:08:06;;;;;;;;;;;10.80;99.90;;;;;;4993883;28;19936;-62
2022/12/26 02:10:36;;;;;;;;;;;10.80;99.90;;;;;;4994298;28;19933;-61
2022/12/26 02:13:04;;;;;;;;;;;10.80;99.90;;;;;;4994362;28;19930;-62
2022/12/26 02:15:32;;;;;;;;;;;10.90;99.90;;;;;;4994856;28;20338;-62
2022/12/26 02:17:59;;;;;;;;;;;10.80;99.90;;;;;;4989598;28;19962;-62
2022/12/26 02:20:31;;;;;;;;;;;10.90;99.90;;;;;;4974525;28;19926;-62
2022/12/26 02:23:19;;;;;;;;;;;10.80;99.90;;;;;;4975185;28;19926;-61
2022/12/26 02:25:59;;;;;;;;;;;10.80;99.90;;;;;;4975174;28;19927;-62
2022/12/26 02:28:38;;;;;;;;;;;10.80;99.90;;;;;;4975155;28;19933;-62
2022/12/26 02:31:11;;;;;;;;;;;10.80;99.90;;;;;;4990314;28;20411;-62
2022/12/26 02:33:42;;;;;;;;;;;10.80;99.90;;;;;;4974602;28;19932;-61
2022/12/26 02:36:28;;;;;;;;;;;10.80;99.90;;;;;;4975540;28;19930;-61
2022/12/26 02:39:03;;;;;;;;;;;10.80;99.90;;;;;;4975187;28;20024;-61
2022/12/26 02:41:56;;;;;;;;;;;10.80;99.90;;;;;;4974189;28;19926;-62
2022/12/26 02:47:14;;;;;;;;;;;10.80;99.90;;;;;;4974964;28;20019;-61
2022/12/26 03:15:13;;;;;;;;;;;10.80;99.90;;;;;;4993789;28;19925;-62
2022/12/26 03:17:41;;;;;;;;;;;10.80;99.90;;;;;;4993549;28;19926;-62
2022/12/26 03:20:11;;;;;;;;;;;10.80;99.90;;;;;;4992810;28;19926;-63
2022/12/26 03:22:43;;;;;;;;;;;10.80;99.90;;;;;;4990431;28;19993;-63
2022/12/26 03:27:58;;;;;;;;;;;10.90;99.90;;;;;;4992951;28;20032;-63
2022/12/26 03:35:54;;;;;;;;;;;11.00;99.90;;;;;;4993089;28;20450;-63
2022/12/26 03:38:24;;;;;;;;;;;11.00;99.90;;;;;;4993073;28;19932;-63
2022/12/26 04:20:24;;;;;;;;;;;10.60;99.90;;;;;;4972336;28;19926;-62
2022/12/26 04:45:56;;;;;;;;;;;10.70;99.90;;;;;;4993988;28;19933;-61
2022/12/26 04:51:10;;;;;;;;;;;10.70;99.90;;;;;;4981356;28;19932;-62
2022/12/26 04:53:37;;;;;;;;;;;10.70;99.90;;;;;;4988875;28;19929;-61
2022/12/26 04:56:05;;;;;;;;;;;10.70;99.90;;;;;;4997327;28;20383;-61
2022/12/26 04:58:34;;;;;;;;;;;10.70;99.90;;;;;;4986531;28;20047;-60
2022/12/26 05:09:35;;;;;;;;;;;10.80;99.90;;;;;;4965097;28;21690;-61
2022/12/26 05:12:03;;;;;;;;;;;10.80;99.90;;;;;;4985974;28;20017;-62
2022/12/26 05:14:34;;;;;;;;;;;10.70;99.90;;;;;;4995116;28;20001;-62
2022/12/26 05:31:07;;;;;;;;;;;10.90;99.90;;;;;;4994687;28;19977;-61
2022/12/26 05:36:21;;;;;;;;;;;10.90;99.90;;;;;;4994989;28;19932;-62
2022/12/26 05:38:49;;;;;;;;;;;10.90;99.90;;;;;;4993494;28;20398;-62
2022/12/26 05:41:17;;;;;;;;;;;11.00;99.90;;;;;;5003587;28;19961;-62
2022/12/26 05:43:44;;;;;;;;;;;11.00;99.90;;;;;;4989127;28;19926;-62
2022/12/26 05:46:13;;;;;;;;;;;11.00;99.90;;;;;;4976234;28;19932;-62
2022/12/26 05:48:41;;;;;;;;;;;11.00;99.90;;;;;;4986100;28;20414;-62
2022/12/26 05:51:09;;;;;;;;;;;11.00;99.90;;;;;;4975247;28;20312;-62
2022/12/26 05:53:37;;;;;;;;;;;11.00;99.90;;;;;;4988787;28;19932;-61
2022/12/26 05:56:05;;;;;;;;;;;11.10;99.90;;;;;;4977345;28;20052;-61
2022/12/26 05:58:33;;;;;;;;;;;11.10;99.90;;;;;;4996788;28;19931;-61
2022/12/26 06:01:04;;;;;;;;;;;11.10;99.90;;;;;;4989814;28;19926;-61
2022/12/26 06:03:34;;;;;;;;;;;11.10;99.90;;;;;;4988843;28;19940;-62
2022/12/26 06:06:02;;;;;;;;;;;11.10;99.90;;;;;;4983663;28;19965;-61
2022/12/26 06:08:30;;;;;;;;;;;11.10;99.90;;;;;;5010117;28;19926;-61
2022/12/26 06:10:57;;;;;;;;;;;11.10;99.90;;;;;;5001362;28;20020;-60
2022/12/26 06:13:25;;;;;;;;;;;11.10;99.90;;;;;;4989233;28;19929;-61
2022/12/26 06:15:53;;;;;;;;;;;11.10;99.90;;;;;;4982190;28;19933;-62
2022/12/26 06:18:20;;;;;;;;;;;11.20;99.90;;;;;;4997086;28;20323;-61
2022/12/26 06:20:49;;;;;;;;;;;11.20;99.90;;;;;;4993795;28;19932;-61
2022/12/26 06:23:17;;;;;;;;;;;11.20;99.90;;;;;;4991915;28;20415;-62
2022/12/26 06:25:45;;;;;;;;;;;11.20;99.90;;;;;;4985643;28;19932;-61
2022/12/26 06:28:12;;;;;;;;;;;11.20;99.90;;;;;;4982996;28;19926;-61
2022/12/26 06:30:40;;;;;;;;;;;11.20;99.90;;;;;;4981502;28;19958;-61
2022/12/26 06:33:08;;;;;;;;;;;11.20;99.90;;;;;;4982061;28;20339;-61
2022/12/26 06:35:35;;;;;;;;;;;11.30;99.90;;;;;;4981672;28;20032;-61
2022/12/26 06:38:04;;;;;;;;;;;11.20;99.90;;;;;;4974450;28;19937;-61
2022/12/26 06:40:32;;;;;;;;;;;11.20;99.90;;;;;;4980074;28;20033;-61
2022/12/26 06:43:00;;;;;;;;;;;11.30;99.90;;;;;;4983037;28;19926;-61
2022/12/26 06:45:27;;;;;;;;;;;11.20;99.90;;;;;;4974252;28;19934;-62
2022/12/26 06:47:55;;;;;;;;;;;11.20;99.90;;;;;;5006220;28;19968;-63
2022/12/26 06:50:23;;;;;;;;;;;11.30;99.90;;;;;;5001280;28;19926;-62
2022/12/26 06:52:50;;;;;;;;;;;11.30;99.90;;;;;;4994138;28;19926;-62
2022/12/26 06:55:19;;;;;;;;;;;11.30;99.90;;;;;;4994077;28;20017;-61
2022/12/26 06:57:47;;;;;;;;;;;11.30;99.90;;;;;;4993829;28;19944;-61
2022/12/26 07:00:15;;;;;;;;;;;11.40;99.90;;;;;;4993567;28;20306;-62
2022/12/26 07:02:43;;;;;;;;;;;11.30;99.90;;;;;;4996470;28;20016;-62
2022/12/26 07:05:11;;;;;;;;;;;11.30;99.90;;;;;;4996128;28;19926;-62
2022/12/26 07:07:38;;;;;;;;;;;11.30;99.90;;;;;;4994687;28;19929;-61
2022/12/26 07:10:06;;;;;;;;;;;11.30;99.90;;;;;;4995155;28;19960;-62
2022/12/26 07:12:35;;;;;;;;;;;11.30;99.90;;;;;;5005061;28;20012;-62
2022/12/26 07:15:03;;;;;;;;;;;11.30;99.90;;;;;;5006484;28;20482;-63
2022/12/26 07:17:31;;;;;;;;;;;11.30;99.90;;;;;;4991421;28;19932;-61
2022/12/26 07:19:59;;;;;;;;;;;11.30;99.90;;;;;;4995188;28;19925;-62
2022/12/26 07:22:28;;;;;;;;;;;11.30;99.90;;;;;;4993346;28;19936;-61
2022/12/26 07:24:55;;;;;;;;;;;11.20;99.90;;;;;;4982165;28;19926;-62
2022/12/26 07:27:23;;;;;;;;;;;11.20;99.90;;;;;;4973975;28;19926;-62
2022/12/26 07:29:52;;;;;;;;;;;11.10;99.90;;;;;;4982099;28;19936;-61
2022/12/26 07:32:20;;;;;;;;;;;11.20;99.90;;;;;;4979107;28;19964;-62
2022/12/26 07:34:47;;;;;;;;;;;11.40;99.90;;;;;;4980677;28;20311;-62
2022/12/26 07:37:15;;;;;;;;;;;11.50;99.90;;;;;;4984115;28;19980;-62
2022/12/26 07:39:43;;;;;;;;;;;11.50;99.90;;;;;;4982005;28;21639;-62
2022/12/26 07:42:11;;;;;;;;;;;11.30;99.90;;;;;;4989276;28;19926;-62
2022/12/26 07:44:39;;;;;;;;;;;11.30;99.90;;;;;;4985908;28;20420;-62
2022/12/26 07:47:08;;;;;;;;;;;11.20;99.90;;;;;;4987121;28;19926;-62
2022/12/26 07:49:35;;;;;;;;;;;11.20;99.90;;;;;;4984230;28;19925;-61
2022/12/26 07:52:03;;;;;;;;;;;11.20;99.90;;;;;;4985734;28;19968;-62
2022/12/26 07:54:31;;;;;;;;;;;11.10;99.90;;;;;;4987521;28;19972;-62
2022/12/26 07:56:59;;;;;;;;;;;11.00;99.90;;;;;;4991528;28;19932;-62
2022/12/26 07:59:46;;;;;;;;;;;10.90;99.90;;;;;;4998452;28;19937;-62
2022/12/26 08:02:21;;;;;;;;;;;10.90;99.90;;;;;;4984330;28;20421;-63
2022/12/26 08:04:49;;;;;;;;;;;11.00;99.90;;;;;;4986077;28;19929;-62
2022/12/26 08:07:16;;;;;;;;;;;10.80;99.90;;;;;;4982142;28;19926;-63
2022/12/26 08:09:44;;;;;;;;;;;11.00;99.90;;;;;;4982177;28;19932;-62
2022/12/26 08:12:12;;;;;;;;;;;11.00;99.90;;;;;;4985278;28;20052;-63
2022/12/26 08:14:40;;;;;;;;;;;11.00;99.90;;;;;;4989293;28;19925;-62
2022/12/26 08:17:08;;;;;;;;;;;11.20;99.90;;;;;;4982848;28;19929;-62
2022/12/26 08:19:37;;;;;;;;;;;11.30;99.90;;;;;;4982223;28;19941;-62
2022/12/26 08:22:05;;;;;;;;;;;11.40;99.90;;;;;;4990184;28;19932;-62
2022/12/26 08:24:33;;;;;;;;;;;11.50;99.90;;;;;;4983158;28;19933;-62
2022/12/26 08:27:00;;;;;;;;;;;11.50;99.90;;;;;;4988383;28;19926;-62
2022/12/26 08:29:28;;;;;;;;;;;11.30;99.90;;;;;;4983228;28;19936;-62
2022/12/26 08:31:56;;;;;;;;;;;11.00;99.90;;;;;;4980310;28;20008;-62
2022/12/26 08:34:23;;;;;;;;;;;10.80;99.90;;;;;;4986479;28;19932;-62
2022/12/26 08:36:52;;;;;;;;;;;10.80;99.90;;;;;;4979858;28;19934;-63
2022/12/26 08:39:20;;;;;;;;;;;10.70;99.90;;;;;;4983019;28;19930;-62
2022/12/26 08:41:48;;;;;;;;;;;10.50;99.90;;;;;;4985817;28;19949;-62
2022/12/26 08:44:16;;;;;;;;;;;10.50;99.90;;;;;;4982169;28;19926;-62
2022/12/26 08:46:54;;;;;;;;;;;10.50;99.90;;;;;;4983618;28;19960;-62
2022/12/26 08:49:22;;;;;;;;;;;10.40;99.90;;;;;;4978986;28;20506;-61
2022/12/26 08:51:49;;;;;;;;;;;10.40;99.90;;;;;;4982829;28;19950;-62
2022/12/26 08:54:18;;;;;;;;;;;10.40;99.90;;;;;;4983267;28;20012;-62
2022/12/26 08:56:46;;;;;;;;;;;10.30;99.90;;;;;;4981498;28;20033;-63
2022/12/26 08:59:14;;;;;;;;;;;10.40;99.90;;;;;;4985858;28;19926;-62
2022/12/26 09:01:42;;;;;;;;;;;10.50;99.90;;;;;;4987234;28;20009;-62
2022/12/26 09:04:10;;;;;;;;;;;10.40;99.90;;;;;;4985438;28;20028;-63
2022/12/26 09:06:38;;;;;;;;;;;10.50;99.90;;;;;;4990540;28;19926;-62
2022/12/26 09:09:07;;;;;;;;;;;10.50;99.90;;;;;;4983473;28;20045;-62
2022/12/26 09:11:36;;;;;;;;;;;10.40;99.90;;;;;;4981142;28;20365;-62
2022/12/26 09:14:04;;;;;;;;;;;10.50;99.90;;;;;;4980147;28;20383;-62
2022/12/26 09:16:35;;;;;;;;;;;10.50;99.90;;;;;;4986920;28;20024;-62
2022/12/26 09:19:10;;;;;;;;;;;10.50;99.90;;;;;;4984704;28;19926;-62
2022/12/26 09:21:38;;;;;;;;;;;10.60;99.90;;;;;;4984973;28;20020;-61
2022/12/26 09:24:07;;;;;;;;;;;10.60;99.90;;;;;;4986694;28;19929;-62
2022/12/26 09:26:36;;;;;;;;;;;10.70;99.90;;;;;;4983196;28;19926;-62
2022/12/26 09:29:04;;;;;;;;;;;10.70;99.90;;;;;;4985807;28;20168;-62
2022/12/26 09:31:33;;;;;;;;;;;10.70;99.90;;;;;;4987985;28;19933;-62
2022/12/26 09:34:01;;;;;;;;;;;10.60;99.90;;;;;;4991160;28;19926;-62
2022/12/26 09:36:29;;;;;;;;;;;10.60;99.90;;;;;;4990465;28;19938;-62
2022/12/26 09:38:58;;;;;;;;;;;10.60;99.90;;;;;;4986019;28;19926;-62
2022/12/26 09:41:32;;;;;;;;;;;10.60;99.90;;;;;;4987166;28;19930;-62
2022/12/26 09:44:05;;;;;;;;;;;10.60;99.90;;;;;;4980322;28;19965;-62
2022/12/26 09:46:35;;;;;;;;;;;10.70;99.90;;;;;;4987739;28;19932;-62
2022/12/26 09:49:06;;;;;;;;;;;10.60;99.90;;;;;;4983007;28;19961;-62
2022/12/26 09:51:35;;;;;;;;;;;10.60;99.90;;;;;;5003016;28;19926;-61
2022/12/26 09:54:05;;;;;;;;;;;10.60;99.90;;;;;;4998306;28;19925;-62
2022/12/26 09:56:36;;;;;;;;;;;10.60;99.90;;;;;;4996228;28;19932;-62
2022/12/26 09:59:25;;;;;;;;;;;10.60;99.90;;;;;;4999701;28;19932;-62
2022/12/26 10:01:53;;;;;;;;;;;10.60;99.90;;;;;;4994386;28;19930;-62
2022/12/26 10:04:23;;;;;;;;;;;10.70;99.90;;;;;;4998314;28;20516;-62
2022/12/26 10:07:01;;;;;;;;;;;10.70;99.90;;;;;;4996673;28;19930;-62
2022/12/26 10:09:42;;;;;;;;;;;10.70;99.90;;;;;;5012613;28;20450;-62
2022/12/26 10:12:17;;;;;;;;;;;10.70;99.90;;;;;;5006992;28;20445;-62
2022/12/26 10:14:49;;;;;;;;;;;10.70;99.90;;;;;;4975757;28;19955;-61
2022/12/26 10:17:19;;;;;;;;;;;10.80;99.90;;;;;;4974837;28;19934;-62
2022/12/26 10:19:53;;;;;;;;;;;10.80;99.90;;;;;;4974473;28;20020;-62
2022/12/26 10:22:27;;;;;;;;;;;10.90;99.90;;;;;;4975414;28;19926;-61
2022/12/26 10:24:56;;;;;;;;;;;10.80;99.90;;;;;;4979601;28;19925;-61
2022/12/26 10:27:25;;;;;;;;;;;10.90;99.90;;;;;;4989696;28;19943;-63
2022/12/26 10:29:56;;;;;;;;;;;11.00;99.90;;;;;;4984039;28;20055;-64
2022/12/26 10:32:26;;;;;;;;;;;11.00;99.90;;;;;;4986912;28;20432;-62
2022/12/26 10:34:55;;;;;;;;;;;10.90;99.90;;;;;;4992576;28;19925;-63
2022/12/26 10:37:25;;;;;;;;;;;10.90;99.90;;;;;;5007126;28;19932;-64
2022/12/26 10:39:55;;;;;;;;;;;10.90;99.90;;;;;;4985573;28;20032;-63
2022/12/26 10:42:26;;;;;;;;;;;10.90;99.90;;;;;;4982440;28;19930;-63
2022/12/26 10:44:55;;;;;;;;;;;10.80;99.90;;;;;;4993621;28;20369;-63
2022/12/26 10:47:24;;;;;;;;;;;10.80;99.90;;;;;;4990042;28;19926;-64
2022/12/26 10:49:52;;;;;;;;;;;10.80;99.90;;;;;;4996269;28;20759;-63
2022/12/26 10:52:22;;;;;;;;;;;10.90;99.90;;;;;;4991118;28;19936;-62
2022/12/26 10:54:53;;;;;;;;;;;10.90;99.90;;;;;;4994720;28;19929;-64
2022/12/26 10:57:41;;;;;;;;;;;10.90;99.90;;;;;;4992896;28;19930;-63
2022/12/26 11:00:17;;;;;;;;;;;11.00;99.90;;;;;;4982929;28;19962;-62
2022/12/26 11:02:45;;;;;;;;;;;11.10;99.90;;;;;;4985732;28;20346;-62
2022/12/26 11:05:14;;;;;;;;;;;11.70;99.90;;;;;;4983444;28;20517;-62
2022/12/26 11:08:07;;;;;;;;;;;12.10;99.90;;;;;;4992053;28;20013;-63
2022/12/26 11:10:35;;;;;;;;;;;12.60;99.90;;;;;;4981296;28;20017;-64
2022/12/26 11:13:06;;;;;;;;;;;12.30;99.90;;;;;;4980800;28;19926;-62
2022/12/26 11:15:37;;;;;;;;;;;12.20;99.90;;;;;;4990561;28;20016;-63
2022/12/26 11:18:09;;;;;;;;;;;12.00;99.90;;;;;;5008633;28;19983;-62
2022/12/26 11:20:38;;;;;;;;;;;11.80;99.90;;;;;;5008481;28;20462;-63
2022/12/26 11:23:13;;;;;;;;;;;11.70;99.90;;;;;;4993917;28;20016;-63
2022/12/26 11:25:47;;;;;;;;;;;11.70;99.90;;;;;;4993773;28;20471;-63
2022/12/26 11:28:20;;;;;;;;;;;11.60;99.90;;;;;;4993576;28;19926;-63
2022/12/26 11:30:49;;;;;;;;;;;11.60;99.90;;;;;;4993004;28;19955;-62
2022/12/26 11:33:21;;;;;;;;;;;11.60;99.90;;;;;;4993033;28;19925;-63
2022/12/26 11:35:50;;;;;;;;;;;11.60;99.90;;;;;;4992843;28;20040;-62
2022/12/26 11:43:57;;;;;;;;;;;11.50;99.90;;;;;;4974365;28;19933;-62
2022/12/26 11:46:33;;;;;;;;;;;11.50;99.90;;;;;;4973842;28;20399;-62
2022/12/26 11:49:02;;;;;;;;;;;11.50;99.90;;;;;;4976035;28;20020;-62
2022/12/26 11:51:33;;;;;;;;;;;11.50;99.90;;;;;;4977818;28;20362;-63
2022/12/26 11:54:12;;;;;;;;;;;11.50;99.90;;;;;;4973574;28;19949;-63
2022/12/26 11:56:40;;;;;;;;;;;11.60;99.90;;;;;;5001555;22;19986;-73
2022/12/26 11:59:13;;;;;;;;;;;11.60;99.90;;;;;;5020727;28;20355;-71
2022/12/26 12:01:42;;;;;;;;;;;11.60;99.90;;;;;;4996009;28;19926;-74
2022/12/26 12:04:10;;;;;;;;;;;11.60;99.90;;;;;;5020148;28;20329;-71
2022/12/26 12:06:45;;;;;;;;;;;11.60;99.90;;;;;;4992778;28;20442;-71
2022/12/26 12:09:17;;;;;;;;;;;11.60;99.90;;;;;;4992668;28;20032;-71
2022/12/26 12:11:47;;;;;;;;;;;11.60;99.90;;;;;;4992040;28;20008;-72
2022/12/26 12:14:26;;;;;;;;;;;11.60;99.90;;;;;;4992864;28;19932;-72
2022/12/26 12:17:04;;;;;;;;;;;11.60;99.90;;;;;;4992044;28;19926;-72
2022/12/26 12:19:42;;;;;;;;;;;11.60;99.90;;;;;;4992053;28;20131;-71
2022/12/26 12:22:22;;;;;;;;;;;11.60;99.90;;;;;;4992737;28;20377;-72
2022/12/26 12:25:17;;;;;;;;;;;11.60;99.90;;;;;;4992828;28;19969;-72
2022/12/26 12:27:48;;;;;;;;;;;11.60;99.90;;;;;;4992373;28;19968;-72
2022/12/26 12:30:18;;;;;;;;;;;11.50;99.90;;;;;;4991786;28;20482;-72
2022/12/26 12:32:58;;;;;;;;;;;11.50;99.90;;;;;;5001628;28;19956;-72
2022/12/26 12:35:37;;;;;;;;;;;11.50;99.90;;;;;;5023751;28;19929;-72
2022/12/26 12:38:18;;;;;;;;;;;11.50;99.90;;;;;;5031589;28;20481;-72
2022/12/26 12:40:49;;;;;;;;;;;11.50;99.90;;;;;;5017703;28;20036;-72
2022/12/26 12:43:20;;;;;;;;;;;11.50;99.90;;;;;;4992590;28;20310;-72
2022/12/26 12:45:56;;;;;;;;;;;11.40;99.90;;;;;;4992325;28;19926;-72
2022/12/26 12:48:30;;;;;;;;;;;11.40;99.90;;;;;;4992048;28;19926;-72
2022/12/26 12:51:01;;;;;;;;;;;11.40;99.90;;;;;;4991689;28;20024;-72
2022/12/26 12:53:35;;;;;;;;;;;11.40;99.90;;;;;;4992668;28;20012;-73
2022/12/26 12:56:12;;;;;;;;;;;11.40;99.90;;;;;;4992486;28;20016;-72
2022/12/26 12:58:43;;;;;;;;;;;11.40;99.90;;;;;;4992040;28;20298;-72
2022/12/26 13:01:13;;;;;;;;;;;11.40;99.90;;;;;;5000640;28;20020;-74
2022/12/26 13:03:47;;;;;;;;;;;11.40;99.90;;;;;;5012164;28;20394;-72
2022/12/26 13:06:16;;;;;;;;;;;11.40;99.90;;;;;;5028319;28;19931;-72
2022/12/26 13:08:45;;;;;;;;;;;11.40;99.90;;;;;;5031548;28;19971;-74
2022/12/26 13:11:15;;;;;;;;;;;11.40;99.90;;;;;;5030868;28;19929;-72
2022/12/26 13:13:44;;;;;;;;;;;11.40;99.90;;;;;;5031226;28;19979;-72
2022/12/26 13:16:22;;;;;;;;;;;11.40;99.90;;;;;;5031480;28;19931;-72
2022/12/26 13:18:52;;;;;;;;;;;11.40;99.90;;;;;;5031355;28;19925;-72
2022/12/26 13:21:21;;;;;;;;;;;11.40;99.90;;;;;;5010816;28;19932;-72
2022/12/26 13:26:37;;;;;;;;;;;11.50;99.90;;;;;;4992105;28;19925;-70
2022/12/26 13:29:07;;;;;;;;;;;11.50;99.90;;;;;;4995779;28;19926;-74
2022/12/26 13:31:35;;;;;;;;;;;11.50;99.90;;;;;;4995107;28;19930;-72
2022/12/26 13:34:07;;;;;;;;;;;11.40;99.90;;;;;;5018507;28;20027;-72
2022/12/26 13:36:39;;;;;;;;;;;11.40;99.90;;;;;;5016101;28;19925;-71
2022/12/26 13:39:22;;;;;;;;;;;11.40;99.90;;;;;;5015498;28;19929;-72
2022/12/26 13:44:37;;;;;;;;;;;11.30;99.90;;;;;;5015165;28;19925;-73
2022/12/26 13:47:04;;;;;;;;;;;11.30;99.90;;;;;;5014848;28;20344;-72
2022/12/26 13:49:35;;;;;;;;;;;11.30;99.90;;;;;;5014547;28;19951;-73
2022/12/26 13:52:24;;;;;;;;;;;11.30;99.90;;;;;;4995422;28;20033;-73
2022/12/26 13:55:06;;;;;;;;;;;11.30;99.90;;;;;;4995360;28;20012;-72
2022/12/26 13:57:38;;;;;;;;;;;11.30;99.90;;;;;;4990411;28;19932;-72
2022/12/26 14:00:13;;;;;;;;;;;11.20;99.90;;;;;;4994724;28;19925;-72
2022/12/26 14:02:51;;;;;;;;;;;11.20;99.90;;;;;;5002761;28;20012;-73
2022/12/26 14:05:43;;;;;;;;;;;11.20;99.90;;;;;;5015476;28;19925;-73
2022/12/26 14:08:16;;;;;;;;;;;11.00;99.90;;;;;;4995230;28;20041;-73
2022/12/26 14:10:48;;;;;;;;;;;11.00;99.90;;;;;;4994511;28;20303;-72
2022/12/26 14:13:30;;;;;;;;;;;10.90;99.90;;;;;;4994720;28;20483;-72
2022/12/26 14:16:02;;;;;;;;;;;10.80;99.90;;;;;;4994990;28;20394;-72
2022/12/26 14:18:37;;;;;;;;;;;10.70;99.90;;;;;;4994652;28;19930;-71
2022/12/26 14:21:19;;;;;;;;;;;10.70;99.90;;;;;;4994264;28;20366;-72
2022/12/26 14:23:52;;;;;;;;;;;10.60;99.90;;;;;;4994726;28;19948;-73
2022/12/26 14:26:28;;;;;;;;;;;10.60;99.90;;;;;;5002430;28;19965;-72
2022/12/26 14:28:59;;;;;;;;;;;10.60;99.90;;;;;;5014348;28;19929;-72
2022/12/26 14:31:31;;;;;;;;;;;10.60;99.90;;;;;;5012065;28;19968;-73
2022/12/26 14:34:03;;;;;;;;;;;10.70;99.90;;;;;;5016977;28;19961;-73
2022/12/26 14:36:42;;;;;;;;;;;10.70;99.90;;;;;;4994602;28;19972;-73
2022/12/26 14:39:15;;;;;;;;;;;10.70;99.90;;;;;;4993982;28;20318;-72
2022/12/26 14:44:43;;;;;;;;;;;10.50;99.90;;;;;;5005330;28;20434;-73
2022/12/26 14:47:11;;;;;;;;;;;10.50;99.90;;;;;;4994296;28;19926;-72
2022/12/26 14:49:40;;;;;;;;;;;10.50;99.90;;;;;;4993478;28;20020;-71
2022/12/26 14:52:27;;;;;;;;;;;10.40;99.90;;;;;;4994212;28;20425;-72
2022/12/26 14:54:56;;;;;;;;;;;10.40;99.90;;;;;;4994237;28;19932;-72
2022/12/26 14:57:43;;;;;;;;;;;10.40;99.90;;;;;;4993777;28;19936;-72
2022/12/26 15:00:41;;;;;;;;;;;10.40;99.90;;;;;;4994257;28;20029;-72
2022/12/26 15:03:19;;;;;;;;;;;10.40;99.90;;;;;;5009261;28;19932;-73
2022/12/26 15:05:48;;;;;;;;;;;10.40;99.90;;;;;;5019712;28;19925;-73
2022/12/26 15:08:28;;;;;;;;;;;10.30;99.90;;;;;;5033297;28;19925;-72
2022/12/26 15:11:07;;;;;;;;;;;10.30;99.90;;;;;;5032652;28;19955;-72
2022/12/26 15:13:44;;;;;;;;;;;10.30;99.90;;;;;;5033015;28;20015;-72
2022/12/26 15:16:19;;;;;;;;;;;10.30;99.90;;;;;;5022044;28;20366;-74
2022/12/26 15:18:59;;;;;;;;;;;10.30;99.90;;;;;;4993443;28;19948;-72
2022/12/26 15:21:37;;;;;;;;;;;10.20;99.90;;;;;;4993184;28;19969;-72
2022/12/26 15:24:31;;;;;;;;;;;10.20;99.90;;;;;;4993598;28;19926;-71
2022/12/26 15:27:28;;;;;;;;;;;10.10;99.90;;;;;;4993441;28;19926;-72
2022/12/26 15:30:05;;;;;;;;;;;10.10;99.90;;;;;;4993016;28;20029;-74
2022/12/26 15:32:36;;;;;;;;;;;9.90;99.90;;;;;;4999180;28;20024;-74
2022/12/26 15:35:15;;;;;;;;;;;9.80;99.90;;;;;;5024300;28;20384;-75
2022/12/26 15:37:55;;;;;;;;;;;9.80;99.90;;;;;;5015510;28;20015;-75
2022/12/26 15:40:23;;;;;;;;;;;9.80;99.90;;;;;;5012526;28;20390;-74
2022/12/26 15:43:17;;;;;;;;;;;9.70;99.90;;;;;;5012826;28;19944;-75
2022/12/26 15:45:46;;;;;;;;;;;9.60;99.90;;;;;;5012909;28;20330;-75
2022/12/26 15:48:24;;;;;;;;;;;9.60;99.90;;;;;;5012204;28;20132;-73
2022/12/26 15:50:56;;;;;;;;;;;9.60;99.90;;;;;;5011312;28;19925;-75
2022/12/26 15:53:29;;;;;;;;;;;9.60;99.90;;;;;;4994951;28;19929;-75
2022/12/26 15:56:21;;;;;;;;;;;9.60;99.90;;;;;;4993157;28;19980;-75
2022/12/26 15:59:06;;;;;;;;;;;9.50;99.90;;;;;;4992886;28;20398;-75
2022/12/26 16:01:38;;;;;;;;;;;9.50;99.90;;;;;;4995370;28;19971;-74
2022/12/26 16:04:10;;;;;;;;;;;9.50;99.90;;;;;;5020341;28;20449;-74
2022/12/26 16:06:45;;;;;;;;;;;9.50;99.90;;;;;;4993148;28;20032;-74
2022/12/26 16:09:18;;;;;;;;;;;9.50;99.90;;;;;;4993010;28;20479;-74
2022/12/26 16:11:49;;;;;;;;;;;9.50;99.90;;;;;;4994804;28;19926;-74
2022/12/26 16:14:25;;;;;;;;;;;9.50;99.90;;;;;;5012369;28;20472;-74
2022/12/26 16:16:54;;;;;;;;;;;9.50;99.90;;;;;;5012381;28;19926;-74
2022/12/26 16:19:23;;;;;;;;;;;9.50;99.90;;;;;;5012079;28;19936;-74
2022/12/26 16:24:39;;;;;;;;;;;9.40;99.90;;;;;;5012172;28;19929;-74
2022/12/26 16:27:13;;;;;;;;;;;9.40;99.90;;;;;;5010044;28;19925;-74
2022/12/26 16:29:44;;;;;;;;;;;9.40;99.90;;;;;;4998241;28;19933;-75
2022/12/26 16:32:15;;;;;;;;;;;9.40;99.90;;;;;;5004327;28;20025;-75
2022/12/26 16:34:44;;;;;;;;;;;9.30;99.90;;;;;;5023327;28;19939;-75
2022/12/26 16:37:15;;;;;;;;;;;9.30;99.90;;;;;;5031747;28;19925;-75
2022/12/26 16:39:43;;;;;;;;;;;9.20;99.90;;;;;;5031268;28;19925;-75
2022/12/26 16:42:27;;;;;;;;;;;9.20;99.90;;;;;;5031630;28;20020;-75
2022/12/26 16:44:55;;;;;;;;;;;9.20;99.90;;;;;;5031602;28;19925;-75
2022/12/26 16:47:25;;;;;;;;;;;9.20;99.90;;;;;;5028985;28;19931;-74
2022/12/26 16:49:53;;;;;;;;;;;9.10;99.90;;;;;;4991597;28;20013;-74
2022/12/26 16:52:31;;;;;;;;;;;9.00;99.90;;;;;;4992340;28;20482;-74
2022/12/26 16:55:22;;;;;;;;;;;9.10;99.90;;;;;;4992378;28;19995;-74
2022/12/26 16:57:50;;;;;;;;;;;9.00;99.90;;;;;;4992110;28;19930;-74
2022/12/26 17:00:19;;;;;;;;;;;9.00;99.90;;;;;;4991792;28;19973;-74
2022/12/26 17:02:49;;;;;;;;;;;9.00;99.90;;;;;;5003495;28;19925;-74
2022/12/26 17:05:20;;;;;;;;;;;9.00;99.90;;;;;;5023048;28;20016;-74
2022/12/26 17:07:49;;;;;;;;;;;8.90;99.90;;;;;;5015762;28;19925;-75
2022/12/26 17:10:18;;;;;;;;;;;8.90;99.90;;;;;;5015173;28;19972;-75